sensor_id;sensor_type;location;lat;lon;timestamp;P1;durP1;ratioP1;P2;durP2;ratioP2
13026;SDS011;6580;42.680;23.324;2023-11-21T00:00:56;20.03;;;12.60;;
13026;SDS011;6580;42.680;23.324;2023-11-21T00:03:43;15.83;;;11.37;;
13026;SDS011;6580;42.680;23.324;2023-11-21T00:06:30;18.13;;;13.00;;
13026;SDS011;6580;42.680;23.324;2023-11-21T00:09:16;14.70;;;11.73;;
13026;SDS011;6580;42.680;23.324;2023-11-21T00:12:03;17.20;;;11.47;;
13026;SDS011;6580;42.680;23.324;2023-11-21T00:14:50;17.43;;;12.13;;
13026;SDS011;6580;42.680;23.324;2023-11-21T00:17:36;17.83;;;12.10;;
13026;SDS011;6580;42.680;23.324;2023-11-21T00:20:24;18.57;;;12.37;;
13026;SDS011;6580;42.680;23.324;2023-11-21T00:23:10;17.43;;;12.37;;
13026;SDS011;6580;42.680;23.324;2023-11-21T00:25:55;15.87;;;11.77;;
13026;SDS011;6580;42.680;23.324;2023-11-21T00:28:44;17.43;;;12.77;;
13026;SDS011;6580;42.680;23.324;2023-11-21T00:31:30;18.87;;;12.73;;
13026;SDS011;6580;42.680;23.324;2023-11-21T00:34:20;17.47;;;12.13;;
13026;SDS011;6580;42.680;23.324;2023-11-21T00:37:12;15.40;;;12.43;;
13026;SDS011;6580;42.680;23.324;2023-11-21T00:39:57;15.87;;;10.30;;
13026;SDS011;6580;42.680;23.324;2023-11-21T00:42:43;16.50;;;10.77;;
13026;SDS011;6580;42.680;23.324;2023-11-21T00:45:30;12.83;;;10.73;;
13026;SDS011;6580;42.680;23.324;2023-11-21T00:48:22;16.67;;;12.17;;
13026;SDS011;6580;42.680;23.324;2023-11-21T00:51:09;20.50;;;12.53;;
13026;SDS011;6580;42.680;23.324;2023-11-21T00:53:55;15.60;;;10.80;;
13026;SDS011;6580;42.680;23.324;2023-11-21T00:56:41;12.70;;;9.90;;
13026;SDS011;6580;42.680;23.324;2023-11-21T00:59:27;11.87;;;9.50;;
13026;SDS011;6580;42.680;23.324;2023-11-21T01:02:14;44.03;;;17.43;;
13026;SDS011;6580;42.680;23.324;2023-11-21T01:04:59;37.83;;;17.30;;
13026;SDS011;6580;42.680;23.324;2023-11-21T01:07:49;48.53;;;17.67;;
13026;SDS011;6580;42.680;23.324;2023-11-21T01:10:35;46.53;;;20.67;;
13026;SDS011;6580;42.680;23.324;2023-11-21T01:13:20;56.13;;;23.77;;
13026;SDS011;6580;42.680;23.324;2023-11-21T01:16:06;64.07;;;24.33;;
13026;SDS011;6580;42.680;23.324;2023-11-21T01:18:52;66.50;;;26.20;;
13026;SDS011;6580;42.680;23.324;2023-11-21T01:21:37;54.40;;;24.40;;
13026;SDS011;6580;42.680;23.324;2023-11-21T01:24:27;77.20;;;29.80;;
13026;SDS011;6580;42.680;23.324;2023-11-21T01:27:12;44.13;;;21.57;;
13026;SDS011;6580;42.680;23.324;2023-11-21T01:29:58;21.20;;;14.63;;
13026;SDS011;6580;42.680;23.324;2023-11-21T01:32:45;27.67;;;16.90;;
13026;SDS011;6580;42.680;23.324;2023-11-21T01:35:32;27.87;;;14.93;;
13026;SDS011;6580;42.680;23.324;2023-11-21T01:38:17;24.83;;;15.50;;
13026;SDS011;6580;42.680;23.324;2023-11-21T01:41:05;22.80;;;14.90;;
13026;SDS011;6580;42.680;23.324;2023-11-21T01:43:51;27.97;;;15.80;;
13026;SDS011;6580;42.680;23.324;2023-11-21T01:46:37;29.50;;;16.60;;
13026;SDS011;6580;42.680;23.324;2023-11-21T01:49:23;25.77;;;16.50;;
13026;SDS011;6580;42.680;23.324;2023-11-21T01:52:09;32.63;;;20.10;;
13026;SDS011;6580;42.680;23.324;2023-11-21T01:54:56;31.20;;;20.17;;
13026;SDS011;6580;42.680;23.324;2023-11-21T01:57:46;37.43;;;23.43;;
13026;SDS011;6580;42.680;23.324;2023-11-21T02:00:34;49.60;;;26.47;;
13026;SDS011;6580;42.680;23.324;2023-11-21T02:03:22;39.23;;;24.33;;
13026;SDS011;6580;42.680;23.324;2023-11-21T02:06:10;34.70;;;21.57;;
13026;SDS011;6580;42.680;23.324;2023-11-21T02:08:57;32.37;;;21.23;;
13026;SDS011;6580;42.680;23.324;2023-11-21T02:11:43;33.27;;;21.73;;
13026;SDS011;6580;42.680;23.324;2023-11-21T02:14:31;38.37;;;22.50;;
13026;SDS011;6580;42.680;23.324;2023-11-21T02:17:17;36.63;;;22.07;;
13026;SDS011;6580;42.680;23.324;2023-11-21T02:20:04;29.07;;;18.60;;
13026;SDS011;6580;42.680;23.324;2023-11-21T02:22:52;33.57;;;22.60;;
13026;SDS011;6580;42.680;23.324;2023-11-21T02:25:41;32.80;;;20.97;;
13026;SDS011;6580;42.680;23.324;2023-11-21T02:28:31;26.57;;;19.10;;
13026;SDS011;6580;42.680;23.324;2023-11-21T02:31:16;29.80;;;19.87;;
13026;SDS011;6580;42.680;23.324;2023-11-21T02:34:03;26.10;;;19.10;;
13026;SDS011;6580;42.680;23.324;2023-11-21T02:36:56;24.40;;;16.37;;
13026;SDS011;6580;42.680;23.324;2023-11-21T02:39:44;28.43;;;18.60;;
13026;SDS011;6580;42.680;23.324;2023-11-21T02:42:29;28.83;;;18.80;;
13026;SDS011;6580;42.680;23.324;2023-11-21T02:45:17;26.77;;;17.53;;
13026;SDS011;6580;42.680;23.324;2023-11-21T02:48:04;27.80;;;18.63;;
13026;SDS011;6580;42.680;23.324;2023-11-21T02:50:50;26.83;;;18.10;;
13026;SDS011;6580;42.680;23.324;2023-11-21T02:53:36;26.13;;;18.40;;
13026;SDS011;6580;42.680;23.324;2023-11-21T02:56:24;31.73;;;18.27;;
13026;SDS011;6580;42.680;23.324;2023-11-21T02:59:10;27.30;;;17.73;;
13026;SDS011;6580;42.680;23.324;2023-11-21T03:01:58;28.20;;;18.57;;
13026;SDS011;6580;42.680;23.324;2023-11-21T03:04:43;26.90;;;18.27;;
13026;SDS011;6580;42.680;23.324;2023-11-21T03:07:30;27.10;;;17.47;;
13026;SDS011;6580;42.680;23.324;2023-11-21T03:10:15;25.70;;;17.83;;
13026;SDS011;6580;42.680;23.324;2023-11-21T03:13:02;26.47;;;19.00;;
13026;SDS011;6580;42.680;23.324;2023-11-21T03:15:48;27.87;;;18.93;;
13026;SDS011;6580;42.680;23.324;2023-11-21T03:18:37;26.43;;;18.93;;
13026;SDS011;6580;42.680;23.324;2023-11-21T03:21:23;28.50;;;20.10;;
13026;SDS011;6580;42.680;23.324;2023-11-21T03:24:09;28.93;;;18.60;;
13026;SDS011;6580;42.680;23.324;2023-11-21T03:26:55;26.77;;;18.93;;
13026;SDS011;6580;42.680;23.324;2023-11-21T03:29:42;29.07;;;18.70;;
13026;SDS011;6580;42.680;23.324;2023-11-21T03:32:29;26.90;;;17.53;;
13026;SDS011;6580;42.680;23.324;2023-11-21T03:35:16;26.60;;;18.80;;
13026;SDS011;6580;42.680;23.324;2023-11-21T03:38:05;24.17;;;17.43;;
13026;SDS011;6580;42.680;23.324;2023-11-21T03:40:50;26.77;;;17.23;;
13026;SDS011;6580;42.680;23.324;2023-11-21T03:43:37;23.83;;;16.93;;
13026;SDS011;6580;42.680;23.324;2023-11-21T03:46:24;28.43;;;17.90;;
13026;SDS011;6580;42.680;23.324;2023-11-21T03:49:11;23.27;;;17.60;;
13026;SDS011;6580;42.680;23.324;2023-11-21T03:51:59;23.13;;;16.93;;
13026;SDS011;6580;42.680;23.324;2023-11-21T03:54:47;24.63;;;17.77;;
13026;SDS011;6580;42.680;23.324;2023-11-21T03:57:34;21.70;;;15.50;;
13026;SDS011;6580;42.680;23.324;2023-11-21T04:00:21;21.90;;;17.00;;
13026;SDS011;6580;42.680;23.324;2023-11-21T04:03:11;26.40;;;16.87;;
13026;SDS011;6580;42.680;23.324;2023-11-21T04:05:57;21.70;;;15.97;;
13026;SDS011;6580;42.680;23.324;2023-11-21T04:08:43;26.23;;;17.63;;
13026;SDS011;6580;42.680;23.324;2023-11-21T04:11:29;23.97;;;16.83;;
13026;SDS011;6580;42.680;23.324;2023-11-21T04:14:15;27.17;;;17.07;;
13026;SDS011;6580;42.680;23.324;2023-11-21T04:17:00;23.43;;;17.40;;
13026;SDS011;6580;42.680;23.324;2023-11-21T04:19:48;22.43;;;16.60;;
13026;SDS011;6580;42.680;23.324;2023-11-21T04:22:36;23.50;;;15.43;;
13026;SDS011;6580;42.680;23.324;2023-11-21T04:25:22;25.70;;;17.90;;
13026;SDS011;6580;42.680;23.324;2023-11-21T04:28:12;22.20;;;16.90;;
13026;SDS011;6580;42.680;23.324;2023-11-21T04:30:57;22.70;;;17.03;;
13026;SDS011;6580;42.680;23.324;2023-11-21T04:33:44;23.17;;;16.77;;
13026;SDS011;6580;42.680;23.324;2023-11-21T04:36:31;26.97;;;17.20;;
13026;SDS011;6580;42.680;23.324;2023-11-21T04:39:18;25.60;;;16.73;;
13026;SDS011;6580;42.680;23.324;2023-11-21T04:42:04;25.23;;;18.77;;
13026;SDS011;6580;42.680;23.324;2023-11-21T04:44:50;23.00;;;16.97;;
13026;SDS011;6580;42.680;23.324;2023-11-21T04:47:36;24.20;;;18.33;;
13026;SDS011;6580;42.680;23.324;2023-11-21T04:50:21;22.03;;;16.80;;
13026;SDS011;6580;42.680;23.324;2023-11-21T04:53:11;26.97;;;17.13;;
13026;SDS011;6580;42.680;23.324;2023-11-21T04:55:58;21.83;;;15.73;;
13026;SDS011;6580;42.680;23.324;2023-11-21T04:58:46;23.30;;;16.10;;
13026;SDS011;6580;42.680;23.324;2023-11-21T05:01:35;25.47;;;17.43;;
13026;SDS011;6580;42.680;23.324;2023-11-21T05:04:21;25.57;;;18.83;;
13026;SDS011;6580;42.680;23.324;2023-11-21T05:07:07;23.87;;;17.37;;
13026;SDS011;6580;42.680;23.324;2023-11-21T05:09:55;24.73;;;17.07;;
13026;SDS011;6580;42.680;23.324;2023-11-21T05:12:42;21.63;;;16.53;;
13026;SDS011;6580;42.680;23.324;2023-11-21T05:15:31;20.80;;;15.77;;
13026;SDS011;6580;42.680;23.324;2023-11-21T05:18:16;24.27;;;16.97;;
13026;SDS011;6580;42.680;23.324;2023-11-21T05:21:02;20.93;;;15.67;;
13026;SDS011;6580;42.680;23.324;2023-11-21T05:23:49;24.63;;;16.83;;
13026;SDS011;6580;42.680;23.324;2023-11-21T05:26:36;21.43;;;15.77;;
13026;SDS011;6580;42.680;23.324;2023-11-21T05:29:22;25.83;;;16.83;;
13026;SDS011;6580;42.680;23.324;2023-11-21T05:32:09;23.27;;;15.90;;
13026;SDS011;6580;42.680;23.324;2023-11-21T05:35:02;19.23;;;14.23;;
13026;SDS011;6580;42.680;23.324;2023-11-21T05:37:53;22.90;;;15.37;;
13026;SDS011;6580;42.680;23.324;2023-11-21T05:40:40;24.57;;;16.17;;
13026;SDS011;6580;42.680;23.324;2023-11-21T05:43:30;20.17;;;14.77;;
13026;SDS011;6580;42.680;23.324;2023-11-21T05:46:16;25.87;;;17.97;;
13026;SDS011;6580;42.680;23.324;2023-11-21T05:49:03;23.40;;;15.37;;
13026;SDS011;6580;42.680;23.324;2023-11-21T05:51:50;20.67;;;15.37;;
13026;SDS011;6580;42.680;23.324;2023-11-21T05:54:37;21.47;;;15.50;;
13026;SDS011;6580;42.680;23.324;2023-11-21T05:57:23;21.00;;;15.43;;
13026;SDS011;6580;42.680;23.324;2023-11-21T06:00:12;19.53;;;15.07;;
13026;SDS011;6580;42.680;23.324;2023-11-21T06:03:04;21.23;;;14.73;;
13026;SDS011;6580;42.680;23.324;2023-11-21T06:05:51;20.30;;;14.30;;
13026;SDS011;6580;42.680;23.324;2023-11-21T06:08:39;19.50;;;14.37;;
13026;SDS011;6580;42.680;23.324;2023-11-21T06:11:27;20.33;;;14.30;;
13026;SDS011;6580;42.680;23.324;2023-11-21T06:14:13;22.07;;;15.57;;
13026;SDS011;6580;42.680;23.324;2023-11-21T06:17:03;27.07;;;17.30;;
13026;SDS011;6580;42.680;23.324;2023-11-21T06:19:48;23.87;;;16.57;;
13026;SDS011;6580;42.680;23.324;2023-11-21T06:22:36;28.23;;;17.47;;
13026;SDS011;6580;42.680;23.324;2023-11-21T06:25:22;20.90;;;16.60;;
13026;SDS011;6580;42.680;23.324;2023-11-21T06:28:08;29.20;;;17.47;;
13026;SDS011;6580;42.680;23.324;2023-11-21T06:30:54;25.73;;;18.23;;
13026;SDS011;6580;42.680;23.324;2023-11-21T06:33:41;27.00;;;17.80;;
13026;SDS011;6580;42.680;23.324;2023-11-21T06:36:27;28.43;;;19.67;;
13026;SDS011;6580;42.680;23.324;2023-11-21T06:39:12;25.70;;;19.07;;
13026;SDS011;6580;42.680;23.324;2023-11-21T06:42:00;25.77;;;19.23;;
13026;SDS011;6580;42.680;23.324;2023-11-21T06:44:46;27.37;;;16.83;;
13026;SDS011;6580;42.680;23.324;2023-11-21T06:47:35;23.43;;;17.30;;
13026;SDS011;6580;42.680;23.324;2023-11-21T06:50:23;22.03;;;16.60;;
13026;SDS011;6580;42.680;23.324;2023-11-21T06:53:11;21.90;;;16.97;;
13026;SDS011;6580;42.680;23.324;2023-11-21T06:55:59;20.47;;;15.80;;
13026;SDS011;6580;42.680;23.324;2023-11-21T06:58:45;24.33;;;17.73;;
13026;SDS011;6580;42.680;23.324;2023-11-21T07:01:37;26.43;;;17.73;;
13026;SDS011;6580;42.680;23.324;2023-11-21T07:04:25;21.73;;;16.63;;
13026;SDS011;6580;42.680;23.324;2023-11-21T07:07:13;23.53;;;16.23;;
13026;SDS011;6580;42.680;23.324;2023-11-21T07:10:00;28.23;;;17.00;;
13026;SDS011;6580;42.680;23.324;2023-11-21T07:12:47;26.50;;;16.97;;
13026;SDS011;6580;42.680;23.324;2023-11-21T07:15:32;23.77;;;17.20;;
13026;SDS011;6580;42.680;23.324;2023-11-21T07:18:17;22.10;;;16.20;;
13026;SDS011;6580;42.680;23.324;2023-11-21T07:21:03;25.10;;;16.20;;
13026;SDS011;6580;42.680;23.324;2023-11-21T07:23:51;21.77;;;16.40;;
13026;SDS011;6580;42.680;23.324;2023-11-21T07:26:36;26.73;;;16.60;;
13026;SDS011;6580;42.680;23.324;2023-11-21T07:29:23;21.83;;;14.70;;
13026;SDS011;6580;42.680;23.324;2023-11-21T07:32:10;17.30;;;14.10;;
13026;SDS011;6580;42.680;23.324;2023-11-21T07:34:57;16.30;;;13.03;;
13026;SDS011;6580;42.680;23.324;2023-11-21T07:37:43;18.30;;;13.83;;
13026;SDS011;6580;42.680;23.324;2023-11-21T07:40:34;18.50;;;13.47;;
13026;SDS011;6580;42.680;23.324;2023-11-21T07:43:22;17.10;;;13.53;;
13026;SDS011;6580;42.680;23.324;2023-11-21T07:46:07;16.57;;;12.87;;
13026;SDS011;6580;42.680;23.324;2023-11-21T07:48:53;19.07;;;14.00;;
13026;SDS011;6580;42.680;23.324;2023-11-21T07:51:39;17.27;;;13.70;;
13026;SDS011;6580;42.680;23.324;2023-11-21T07:54:25;18.13;;;12.70;;
13026;SDS011;6580;42.680;23.324;2023-11-21T07:57:13;16.13;;;10.13;;
13026;SDS011;6580;42.680;23.324;2023-11-21T07:59:59;13.47;;;8.37;;
13026;SDS011;6580;42.680;23.324;2023-11-21T08:02:48;10.20;;;8.33;;
13026;SDS011;6580;42.680;23.324;2023-11-21T08:05:33;10.23;;;8.53;;
13026;SDS011;6580;42.680;23.324;2023-11-21T08:08:22;16.20;;;11.10;;
13026;SDS011;6580;42.680;23.324;2023-11-21T08:11:14;13.10;;;9.73;;
13026;SDS011;6580;42.680;23.324;2023-11-21T08:14:04;12.87;;;9.73;;
13026;SDS011;6580;42.680;23.324;2023-11-21T08:16:49;12.63;;;9.50;;
13026;SDS011;6580;42.680;23.324;2023-11-21T08:19:35;13.87;;;9.00;;
13026;SDS011;6580;42.680;23.324;2023-11-21T08:22:22;16.67;;;9.37;;
13026;SDS011;6580;42.680;23.324;2023-11-21T08:25:09;14.93;;;9.17;;
13026;SDS011;6580;42.680;23.324;2023-11-21T08:27:56;10.13;;;8.33;;
13026;SDS011;6580;42.680;23.324;2023-11-21T08:30:44;11.20;;;9.77;;
13026;SDS011;6580;42.680;23.324;2023-11-21T08:33:30;11.37;;;8.33;;
13026;SDS011;6580;42.680;23.324;2023-11-21T08:36:24;10.60;;;8.53;;
13026;SDS011;6580;42.680;23.324;2023-11-21T08:39:09;11.73;;;8.80;;
13026;SDS011;6580;42.680;23.324;2023-11-21T08:41:56;11.80;;;8.97;;
13026;SDS011;6580;42.680;23.324;2023-11-21T08:44:44;11.60;;;8.53;;
13026;SDS011;6580;42.680;23.324;2023-11-21T08:47:31;14.87;;;9.33;;
13026;SDS011;6580;42.680;23.324;2023-11-21T08:50:17;10.23;;;9.13;;
13026;SDS011;6580;42.680;23.324;2023-11-21T08:53:03;13.97;;;10.17;;
13026;SDS011;6580;42.680;23.324;2023-11-21T08:55:49;12.27;;;9.23;;
13026;SDS011;6580;42.680;23.324;2023-11-21T08:58:35;13.63;;;9.80;;
13026;SDS011;6580;42.680;23.324;2023-11-21T09:01:22;18.23;;;11.27;;
13026;SDS011;6580;42.680;23.324;2023-11-21T09:04:09;16.10;;;12.03;;
13026;SDS011;6580;42.680;23.324;2023-11-21T09:06:56;17.30;;;13.43;;
13026;SDS011;6580;42.680;23.324;2023-11-21T09:09:43;14.50;;;11.77;;
13026;SDS011;6580;42.680;23.324;2023-11-21T09:12:29;17.87;;;12.60;;
13026;SDS011;6580;42.680;23.324;2023-11-21T09:15:16;20.93;;;14.93;;
13026;SDS011;6580;42.680;23.324;2023-11-21T09:18:02;19.17;;;14.73;;
13026;SDS011;6580;42.680;23.324;2023-11-21T09:20:50;22.23;;;14.77;;
13026;SDS011;6580;42.680;23.324;2023-11-21T09:23:36;20.80;;;15.43;;
13026;SDS011;6580;42.680;23.324;2023-11-21T09:26:22;26.93;;;17.93;;
13026;SDS011;6580;42.680;23.324;2023-11-21T09:29:07;29.90;;;19.27;;
13026;SDS011;6580;42.680;23.324;2023-11-21T09:31:53;25.70;;;18.80;;
13026;SDS011;6580;42.680;23.324;2023-11-21T09:34:38;26.57;;;20.23;;
13026;SDS011;6580;42.680;23.324;2023-11-21T09:37:27;28.17;;;22.67;;
13026;SDS011;6580;42.680;23.324;2023-11-21T09:40:12;31.20;;;23.33;;
13026;SDS011;6580;42.680;23.324;2023-11-21T09:43:01;37.40;;;25.37;;
13026;SDS011;6580;42.680;23.324;2023-11-21T09:45:54;31.40;;;23.67;;
13026;SDS011;6580;42.680;23.324;2023-11-21T09:48:41;30.20;;;23.27;;
13026;SDS011;6580;42.680;23.324;2023-11-21T09:51:29;32.67;;;24.10;;
13026;SDS011;6580;42.680;23.324;2023-11-21T09:54:18;34.40;;;25.10;;
13026;SDS011;6580;42.680;23.324;2023-11-21T09:57:05;33.03;;;25.20;;
13026;SDS011;6580;42.680;23.324;2023-11-21T09:59:51;37.53;;;25.87;;
13026;SDS011;6580;42.680;23.324;2023-11-21T10:02:40;33.97;;;24.80;;
13026;SDS011;6580;42.680;23.324;2023-11-21T10:05:27;30.60;;;25.20;;
13026;SDS011;6580;42.680;23.324;2023-11-21T10:08:18;36.03;;;25.70;;
13026;SDS011;6580;42.680;23.324;2023-11-21T10:11:09;28.37;;;23.07;;
13026;SDS011;6580;42.680;23.324;2023-11-21T10:13:58;34.57;;;26.27;;
13026;SDS011;6580;42.680;23.324;2023-11-21T10:16:45;29.60;;;22.97;;
13026;SDS011;6580;42.680;23.324;2023-11-21T10:19:36;34.80;;;23.97;;
13026;SDS011;6580;42.680;23.324;2023-11-21T10:22:23;23.93;;;20.37;;
13026;SDS011;6580;42.680;23.324;2023-11-21T10:25:09;28.50;;;22.33;;
13026;SDS011;6580;42.680;23.324;2023-11-21T10:27:59;23.70;;;20.60;;
13026;SDS011;6580;42.680;23.324;2023-11-21T10:30:48;24.27;;;18.87;;
13026;SDS011;6580;42.680;23.324;2023-11-21T10:33:34;26.73;;;20.40;;
13026;SDS011;6580;42.680;23.324;2023-11-21T10:36:25;26.37;;;21.60;;
13026;SDS011;6580;42.680;23.324;2023-11-21T10:39:13;26.43;;;20.03;;
13026;SDS011;6580;42.680;23.324;2023-11-21T10:42:02;25.70;;;20.40;;
13026;SDS011;6580;42.680;23.324;2023-11-21T10:44:52;22.37;;;19.10;;
13026;SDS011;6580;42.680;23.324;2023-11-21T10:47:55;23.80;;;19.00;;
13026;SDS011;6580;42.680;23.324;2023-11-21T10:50:41;25.93;;;20.60;;
13026;SDS011;6580;42.680;23.324;2023-11-21T10:53:28;25.67;;;17.00;;
13026;SDS011;6580;42.680;23.324;2023-11-21T10:56:14;20.57;;;15.73;;
13026;SDS011;6580;42.680;23.324;2023-11-21T10:59:05;25.47;;;16.67;;
13026;SDS011;6580;42.680;23.324;2023-11-21T11:01:54;22.13;;;16.40;;
13026;SDS011;6580;42.680;23.324;2023-11-21T11:04:47;24.57;;;17.17;;
13026;SDS011;6580;42.680;23.324;2023-11-21T11:07:42;20.60;;;16.10;;
13026;SDS011;6580;42.680;23.324;2023-11-21T11:10:30;21.13;;;15.83;;
13026;SDS011;6580;42.680;23.324;2023-11-21T11:13:16;20.93;;;15.97;;
13026;SDS011;6580;42.680;23.324;2023-11-21T11:16:02;17.53;;;15.63;;
13026;SDS011;6580;42.680;23.324;2023-11-21T11:18:51;22.17;;;16.60;;
13026;SDS011;6580;42.680;23.324;2023-11-21T11:21:42;17.30;;;13.20;;
13026;SDS011;6580;42.680;23.324;2023-11-21T11:24:45;15.70;;;12.43;;
13026;SDS011;6580;42.680;23.324;2023-11-21T11:27:48;20.10;;;14.43;;
13026;SDS011;6580;42.680;23.324;2023-11-21T11:30:47;15.60;;;12.37;;
13026;SDS011;6580;42.680;23.324;2023-11-21T11:33:48;17.80;;;12.27;;
13026;SDS011;6580;42.680;23.324;2023-11-21T11:36:47;18.87;;;14.63;;
13026;SDS011;6580;42.680;23.324;2023-11-21T11:39:40;23.00;;;16.10;;
13026;SDS011;6580;42.680;23.324;2023-11-21T11:42:28;17.03;;;15.33;;
13026;SDS011;6580;42.680;23.324;2023-11-21T11:45:21;15.97;;;13.47;;
13026;SDS011;6580;42.680;23.324;2023-11-21T11:48:10;19.07;;;14.60;;
13026;SDS011;6580;42.680;23.324;2023-11-21T11:51:01;17.87;;;13.83;;
13026;SDS011;6580;42.680;23.324;2023-11-21T11:53:49;18.67;;;15.33;;
13026;SDS011;6580;42.680;23.324;2023-11-21T11:56:37;23.97;;;17.80;;
13026;SDS011;6580;42.680;23.324;2023-11-21T11:59:24;26.17;;;18.57;;
13026;SDS011;6580;42.680;23.324;2023-11-21T12:02:09;23.90;;;18.30;;
13026;SDS011;6580;42.680;23.324;2023-11-21T12:04:55;24.23;;;16.53;;
13026;SDS011;6580;42.680;23.324;2023-11-21T12:07:46;22.20;;;17.40;;
13026;SDS011;6580;42.680;23.324;2023-11-21T12:10:35;21.77;;;16.43;;
13026;SDS011;6580;42.680;23.324;2023-11-21T12:13:22;21.77;;;15.93;;
13026;SDS011;6580;42.680;23.324;2023-11-21T12:16:08;28.67;;;19.23;;
13026;SDS011;6580;42.680;23.324;2023-11-21T12:18:57;24.27;;;16.80;;
13026;SDS011;6580;42.680;23.324;2023-11-21T12:21:44;21.00;;;16.53;;
13026;SDS011;6580;42.680;23.324;2023-11-21T12:24:30;20.37;;;17.07;;
13026;SDS011;6580;42.680;23.324;2023-11-21T12:27:26;20.93;;;16.33;;
13026;SDS011;6580;42.680;23.324;2023-11-21T12:30:21;23.13;;;18.67;;
13026;SDS011;6580;42.680;23.324;2023-11-21T12:33:07;25.70;;;19.97;;
13026;SDS011;6580;42.680;23.324;2023-11-21T12:35:53;29.70;;;21.43;;
13026;SDS011;6580;42.680;23.324;2023-11-21T12:38:38;27.10;;;20.03;;
13026;SDS011;6580;42.680;23.324;2023-11-21T12:41:24;28.63;;;20.20;;
13026;SDS011;6580;42.680;23.324;2023-11-21T12:44:11;29.70;;;20.27;;
13026;SDS011;6580;42.680;23.324;2023-11-21T12:47:00;34.73;;;21.10;;
13026;SDS011;6580;42.680;23.324;2023-11-21T12:49:46;25.47;;;19.23;;
13026;SDS011;6580;42.680;23.324;2023-11-21T12:52:32;25.57;;;19.10;;
13026;SDS011;6580;42.680;23.324;2023-11-21T12:55:20;26.13;;;19.83;;
13026;SDS011;6580;42.680;23.324;2023-11-21T12:58:07;22.80;;;18.10;;
13026;SDS011;6580;42.680;23.324;2023-11-21T13:00:58;26.93;;;18.77;;
13026;SDS011;6580;42.680;23.324;2023-11-21T13:03:47;22.47;;;18.63;;
13026;SDS011;6580;42.680;23.324;2023-11-21T13:06:34;26.50;;;17.13;;
13026;SDS011;6580;42.680;23.324;2023-11-21T13:09:24;23.40;;;18.73;;
13026;SDS011;6580;42.680;23.324;2023-11-21T13:12:11;25.20;;;18.27;;
13026;SDS011;6580;42.680;23.324;2023-11-21T13:14:57;23.47;;;18.43;;
13026;SDS011;6580;42.680;23.324;2023-11-21T13:17:52;25.60;;;17.47;;
13026;SDS011;6580;42.680;23.324;2023-11-21T13:20:40;24.33;;;19.20;;
13026;SDS011;6580;42.680;23.324;2023-11-21T13:23:26;24.77;;;18.33;;
13026;SDS011;6580;42.680;23.324;2023-11-21T13:26:13;23.30;;;17.93;;
13026;SDS011;6580;42.680;23.324;2023-11-21T13:28:59;24.03;;;17.60;;
13026;SDS011;6580;42.680;23.324;2023-11-21T13:31:46;28.97;;;19.57;;
13026;SDS011;6580;42.680;23.324;2023-11-21T13:34:36;22.57;;;17.40;;
13026;SDS011;6580;42.680;23.324;2023-11-21T13:37:22;24.90;;;16.50;;
13026;SDS011;6580;42.680;23.324;2023-11-21T13:40:08;23.63;;;17.80;;
13026;SDS011;6580;42.680;23.324;2023-11-21T13:42:59;19.93;;;16.27;;
13026;SDS011;6580;42.680;23.324;2023-11-21T13:45:49;22.90;;;17.23;;
13026;SDS011;6580;42.680;23.324;2023-11-21T13:48:39;34.00;;;18.63;;
13026;SDS011;6580;42.680;23.324;2023-11-21T13:51:28;28.93;;;18.70;;
13026;SDS011;6580;42.680;23.324;2023-11-21T13:54:23;29.60;;;18.03;;
13026;SDS011;6580;42.680;23.324;2023-11-21T13:57:09;28.90;;;19.07;;
13026;SDS011;6580;42.680;23.324;2023-11-21T13:59:54;28.23;;;19.60;;
13026;SDS011;6580;42.680;23.324;2023-11-21T14:02:42;26.33;;;18.73;;
13026;SDS011;6580;42.680;23.324;2023-11-21T14:05:29;27.77;;;20.77;;
13026;SDS011;6580;42.680;23.324;2023-11-21T14:08:20;26.57;;;20.80;;
13026;SDS011;6580;42.680;23.324;2023-11-21T14:11:07;26.43;;;20.27;;
13026;SDS011;6580;42.680;23.324;2023-11-21T14:13:54;36.90;;;20.80;;
13026;SDS011;6580;42.680;23.324;2023-11-21T14:16:42;30.10;;;22.80;;
13026;SDS011;6580;42.680;23.324;2023-11-21T14:19:28;29.17;;;22.13;;
13026;SDS011;6580;42.680;23.324;2023-11-21T14:22:16;34.90;;;23.67;;
13026;SDS011;6580;42.680;23.324;2023-11-21T14:25:05;28.50;;;22.27;;
13026;SDS011;6580;42.680;23.324;2023-11-21T14:27:51;30.23;;;22.40;;
13026;SDS011;6580;42.680;23.324;2023-11-21T14:30:36;95.83;;;29.80;;
13026;SDS011;6580;42.680;23.324;2023-11-21T14:33:23;29.20;;;21.90;;
13026;SDS011;6580;42.680;23.324;2023-11-21T14:36:08;35.63;;;23.53;;
13026;SDS011;6580;42.680;23.324;2023-11-21T14:38:54;34.93;;;22.03;;
13026;SDS011;6580;42.680;23.324;2023-11-21T14:41:42;33.37;;;24.27;;
13026;SDS011;6580;42.680;23.324;2023-11-21T14:44:28;31.47;;;21.40;;
13026;SDS011;6580;42.680;23.324;2023-11-21T14:47:19;36.00;;;24.90;;
13026;SDS011;6580;42.680;23.324;2023-11-21T14:50:09;34.13;;;22.77;;
13026;SDS011;6580;42.680;23.324;2023-11-21T14:53:23;29.13;;;21.80;;
13026;SDS011;6580;42.680;23.324;2023-11-21T14:56:26;27.70;;;19.97;;
13026;SDS011;6580;42.680;23.324;2023-11-21T14:59:15;27.33;;;21.00;;
13026;SDS011;6580;42.680;23.324;2023-11-21T15:02:01;30.20;;;21.17;;
13026;SDS011;6580;42.680;23.324;2023-11-21T15:04:58;36.37;;;24.43;;
13026;SDS011;6580;42.680;23.324;2023-11-21T15:07:47;38.90;;;25.53;;
13026;SDS011;6580;42.680;23.324;2023-11-21T15:10:33;34.47;;;25.03;;
13026;SDS011;6580;42.680;23.324;2023-11-21T15:13:29;28.60;;;21.23;;
13026;SDS011;6580;42.680;23.324;2023-11-21T15:16:17;27.90;;;22.07;;
13026;SDS011;6580;42.680;23.324;2023-11-21T15:19:02;31.83;;;23.77;;
13026;SDS011;6580;42.680;23.324;2023-11-21T15:21:51;32.10;;;23.03;;
13026;SDS011;6580;42.680;23.324;2023-11-21T15:24:37;32.57;;;24.33;;
13026;SDS011;6580;42.680;23.324;2023-11-21T15:27:25;34.23;;;24.53;;
13026;SDS011;6580;42.680;23.324;2023-11-21T15:30:11;33.87;;;25.17;;
13026;SDS011;6580;42.680;23.324;2023-11-21T15:33:01;34.47;;;26.57;;
13026;SDS011;6580;42.680;23.324;2023-11-21T15:35:47;37.80;;;27.87;;
13026;SDS011;6580;42.680;23.324;2023-11-21T15:38:33;36.80;;;26.43;;
13026;SDS011;6580;42.680;23.324;2023-11-21T15:41:19;36.70;;;24.20;;
13026;SDS011;6580;42.680;23.324;2023-11-21T15:44:05;34.57;;;24.63;;
13026;SDS011;6580;42.680;23.324;2023-11-21T15:46:53;33.37;;;24.10;;
13026;SDS011;6580;42.680;23.324;2023-11-21T15:49:45;38.10;;;25.90;;
13026;SDS011;6580;42.680;23.324;2023-11-21T15:52:31;36.40;;;26.47;;
13026;SDS011;6580;42.680;23.324;2023-11-21T15:55:17;43.47;;;29.40;;
13026;SDS011;6580;42.680;23.324;2023-11-21T15:58:03;49.47;;;34.07;;
13026;SDS011;6580;42.680;23.324;2023-11-21T16:00:50;51.63;;;34.90;;
13026;SDS011;6580;42.680;23.324;2023-11-21T16:03:36;56.40;;;37.60;;
13026;SDS011;6580;42.680;23.324;2023-11-21T16:06:23;55.83;;;38.37;;
13026;SDS011;6580;42.680;23.324;2023-11-21T16:09:10;52.93;;;36.57;;
13026;SDS011;6580;42.680;23.324;2023-11-21T16:12:06;51.67;;;35.27;;
13026;SDS011;6580;42.680;23.324;2023-11-21T16:14:53;53.73;;;36.87;;
13026;SDS011;6580;42.680;23.324;2023-11-21T16:17:39;46.23;;;34.10;;
13026;SDS011;6580;42.680;23.324;2023-11-21T16:20:25;53.27;;;34.73;;
13026;SDS011;6580;42.680;23.324;2023-11-21T16:23:12;53.73;;;36.27;;